sensor_id;sensor_type;location;lat;lon;timestamp;pressure;altitude;pressure_sealevel;temperature;humidity
6532;BME280;3299;42.004;24.868;2023-05-21T00:01:37;97976.16;;;15.29;100.00
6532;BME280;3299;42.004;24.868;2023-05-21T00:04:03;97990.59;;;15.50;100.00
6532;BME280;3299;42.004;24.868;2023-05-21T00:06:32;97950.09;;;15.29;100.00
6532;BME280;3299;42.004;24.868;2023-05-21T00:09:00;97934.44;;;15.29;100.00
6532;BME280;3299;42.004;24.868;2023-05-21T00:11:25;97972.22;;;15.52;100.00
6532;BME280;3299;42.004;24.868;2023-05-21T00:13:51;97948.81;;;15.42;100.00
6532;BME280;3299;42.004;24.868;2023-05-21T00:16:16;97885.94;;;14.91;100.00
6532;BME280;3299;42.004;24.868;2023-05-21T00:18:42;97866.13;;;14.81;100.00
6532;BME280;3299;42.004;24.868;2023-05-21T00:21:08;97955.28;;;15.29;100.00
6532;BME280;3299;42.004;24.868;2023-05-21T00:23:34;97906.06;;;14.99;100.00
6532;BME280;3299;42.004;24.868;2023-05-21T00:26:01;97942.19;;;15.11;100.00
6532;BME280;3299;42.004;24.868;2023-05-21T00:28:27;97936.84;;;15.13;100.00
6532;BME280;3299;42.004;24.868;2023-05-21T00:30:52;97933.31;;;15.04;100.00
6532;BME280;3299;42.004;24.868;2023-05-21T00:33:17;97884.28;;;14.63;100.00
6532;BME280;3299;42.004;24.868;2023-05-21T00:35:46;97906.94;;;14.90;100.00
6532;BME280;3299;42.004;24.868;2023-05-21T00:38:11;97910.22;;;14.92;100.00
6532;BME280;3299;42.004;24.868;2023-05-21T00:40:36;97848.94;;;14.61;100.00
6532;BME280;3299;42.004;24.868;2023-05-21T00:43:05;97894.19;;;14.87;100.00
6532;BME280;3299;42.004;24.868;2023-05-21T00:45:34;97903.66;;;14.88;100.00
6532;BME280;3299;42.004;24.868;2023-05-21T00:48:03;97928.22;;;15.12;100.00
6532;BME280;3299;42.004;24.868;2023-05-21T00:50:30;97917.94;;;15.11;100.00
6532;BME280;3299;42.004;24.868;2023-05-21T00:52:56;97867.94;;;14.71;100.00
6532;BME280;3299;42.004;24.868;2023-05-21T00:55:21;97899.63;;;14.93;100.00
6532;BME280;3299;42.004;24.868;2023-05-21T00:57:47;97918.56;;;14.95;100.00
6532;BME280;3299;42.004;24.868;2023-05-21T01:00:14;97926.22;;;14.97;100.00
6532;BME280;3299;42.004;24.868;2023-05-21T01:02:39;97849.84;;;14.42;100.00
6532;BME280;3299;42.004;24.868;2023-05-21T01:05:05;97881.81;;;14.62;100.00
6532;BME280;3299;42.004;24.868;2023-05-21T01:07:35;97853.78;;;14.46;100.00
6532;BME280;3299;42.004;24.868;2023-05-21T01:10:05;97844.47;;;14.44;100.00
6532;BME280;3299;42.004;24.868;2023-05-21T01:12:32;97916.09;;;14.94;100.00
6532;BME280;3299;42.004;24.868;2023-05-21T01:15:01;97886.03;;;14.72;100.00
6532;BME280;3299;42.004;24.868;2023-05-21T01:17:28;97891.66;;;14.77;100.00
6532;BME280;3299;42.004;24.868;2023-05-21T01:19:56;97873.59;;;14.66;100.00
6532;BME280;3299;42.004;24.868;2023-05-21T01:22:22;97883.97;;;14.76;100.00
6532;BME280;3299;42.004;24.868;2023-05-21T01:24:50;97875.47;;;14.74;100.00
6532;BME280;3299;42.004;24.868;2023-05-21T01:27:19;97840.50;;;14.49;100.00
6532;BME280;3299;42.004;24.868;2023-05-21T01:29:44;97848.78;;;14.62;100.00
6532;BME280;3299;42.004;24.868;2023-05-21T01:32:22;97918.63;;;15.13;100.00
6532;BME280;3299;42.004;24.868;2023-05-21T01:35:10;97845.88;;;14.75;100.00
6532;BME280;3299;42.004;24.868;2023-05-21T01:37:40;97929.50;;;15.26;100.00
6532;BME280;3299;42.004;24.868;2023-05-21T01:43:05;97924.59;;;15.23;100.00
6532;BME280;3299;42.004;24.868;2023-05-21T01:45:32;97880.03;;;14.99;100.00
6532;BME280;3299;42.004;24.868;2023-05-21T01:47:57;97879.25;;;14.89;100.00
6532;BME280;3299;42.004;24.868;2023-05-21T01:50:23;97885.13;;;14.91;100.00
6532;BME280;3299;42.004;24.868;2023-05-21T01:52:54;97865.28;;;14.80;100.00
6532;BME280;3299;42.004;24.868;2023-05-21T01:55:21;97866.72;;;14.75;100.00
6532;BME280;3299;42.004;24.868;2023-05-21T01:57:54;97903.06;;;14.94;100.00
6532;BME280;3299;42.004;24.868;2023-05-21T02:00:20;97869.59;;;14.72;100.00
6532;BME280;3299;42.004;24.868;2023-05-21T02:02:47;97896.50;;;14.90;100.00
6532;BME280;3299;42.004;24.868;2023-05-21T02:05:12;97868.66;;;14.63;100.00
6532;BME280;3299;42.004;24.868;2023-05-21T02:07:38;97850.06;;;14.49;100.00
6532;BME280;3299;42.004;24.868;2023-05-21T02:10:05;97863.50;;;14.54;100.00
6532;BME280;3299;42.004;24.868;2023-05-21T02:12:30;97919.16;;;14.80;100.00
6532;BME280;3299;42.004;24.868;2023-05-21T02:14:56;97838.50;;;14.34;100.00
6532;BME280;3299;42.004;24.868;2023-05-21T02:17:22;97856.16;;;14.40;100.00
6532;BME280;3299;42.004;24.868;2023-05-21T02:19:48;97832.78;;;14.21;100.00
6532;BME280;3299;42.004;24.868;2023-05-21T02:22:14;97908.78;;;14.70;100.00
6532;BME280;3299;42.004;24.868;2023-05-21T02:24:40;97896.38;;;14.55;100.00
6532;BME280;3299;42.004;24.868;2023-05-21T02:27:05;97818.38;;;14.17;100.00
6532;BME280;3299;42.004;24.868;2023-05-21T02:29:31;97828.50;;;14.29;100.00
6532;BME280;3299;42.004;24.868;2023-05-21T02:31:57;97829.44;;;14.38;100.00
6532;BME280;3299;42.004;24.868;2023-05-21T02:34:22;97883.72;;;14.69;100.00
6532;BME280;3299;42.004;24.868;2023-05-21T02:36:49;97877.56;;;14.61;100.00
6532;BME280;3299;42.004;24.868;2023-05-21T02:39:19;97842.34;;;14.30;100.00
6532;BME280;3299;42.004;24.868;2023-05-21T02:41:45;97910.28;;;14.73;100.00
6532;BME280;3299;42.004;24.868;2023-05-21T02:44:11;97810.19;;;14.12;100.00
6532;BME280;3299;42.004;24.868;2023-05-21T02:46:37;97849.72;;;14.34;100.00
6532;BME280;3299;42.004;24.868;2023-05-21T02:49:02;97897.47;;;14.52;100.00
6532;BME280;3299;42.004;24.868;2023-05-21T02:51:27;97817.19;;;14.02;100.00
6532;BME280;3299;42.004;24.868;2023-05-21T02:53:53;97879.00;;;14.36;100.00
6532;BME280;3299;42.004;24.868;2023-05-21T02:56:18;97853.44;;;14.22;100.00
6532;BME280;3299;42.004;24.868;2023-05-21T02:58:44;97812.66;;;14.04;100.00
6532;BME280;3299;42.004;24.868;2023-05-21T03:01:10;97861.63;;;14.37;100.00
6532;BME280;3299;42.004;24.868;2023-05-21T03:03:35;97840.97;;;14.26;100.00
6532;BME280;3299;42.004;24.868;2023-05-21T03:06:01;97897.31;;;14.63;100.00
6532;BME280;3299;42.004;24.868;2023-05-21T03:08:26;97859.44;;;14.42;100.00
6532;BME280;3299;42.004;24.868;2023-05-21T03:10:52;97898.97;;;14.55;100.00
6532;BME280;3299;42.004;24.868;2023-05-21T03:13:17;97814.06;;;13.98;100.00
6532;BME280;3299;42.004;24.868;2023-05-21T03:15:42;97821.56;;;14.01;100.00
6532;BME280;3299;42.004;24.868;2023-05-21T03:18:09;97897.91;;;14.48;100.00
6532;BME280;3299;42.004;24.868;2023-05-21T03:20:34;97856.19;;;14.21;100.00
6532;BME280;3299;42.004;24.868;2023-05-21T03:22:59;97869.56;;;14.35;100.00
6532;BME280;3299;42.004;24.868;2023-05-21T03:25:28;97824.69;;;14.14;100.00
6532;BME280;3299;42.004;24.868;2023-05-21T03:27:54;97892.00;;;14.55;100.00
6532;BME280;3299;42.004;24.868;2023-05-21T03:30:19;97831.97;;;14.11;100.00
6532;BME280;3299;42.004;24.868;2023-05-21T03:32:45;97918.09;;;14.73;100.00
6532;BME280;3299;42.004;24.868;2023-05-21T03:35:11;97840.31;;;14.24;100.00
6532;BME280;3299;42.004;24.868;2023-05-21T03:37:37;97837.41;;;14.17;100.00
6532;BME280;3299;42.004;24.868;2023-05-21T03:40:02;97888.84;;;14.52;100.00
6532;BME280;3299;42.004;24.868;2023-05-21T03:42:28;97827.31;;;14.05;100.00
6532;BME280;3299;42.004;24.868;2023-05-21T03:44:54;97846.75;;;14.20;100.00
6532;BME280;3299;42.004;24.868;2023-05-21T03:47:19;97817.16;;;14.11;100.00
6532;BME280;3299;42.004;24.868;2023-05-21T03:49:45;97889.28;;;14.38;100.00
6532;BME280;3299;42.004;24.868;2023-05-21T03:52:10;97899.38;;;14.60;100.00
6532;BME280;3299;42.004;24.868;2023-05-21T03:54:36;97886.81;;;14.46;100.00
6532;BME280;3299;42.004;24.868;2023-05-21T03:57:01;97890.66;;;14.42;100.00
6532;BME280;3299;42.004;24.868;2023-05-21T03:59:27;97827.47;;;14.03;100.00
6532;BME280;3299;42.004;24.868;2023-05-21T04:01:52;97829.19;;;14.12;100.00
6532;BME280;3299;42.004;24.868;2023-05-21T04:04:17;97822.22;;;14.13;100.00
6532;BME280;3299;42.004;24.868;2023-05-21T04:06:43;97829.09;;;14.04;100.00
6532;BME280;3299;42.004;24.868;2023-05-21T04:09:08;97874.38;;;14.40;100.00
6532;BME280;3299;42.004;24.868;2023-05-21T04:11:34;97867.22;;;14.42;100.00
6532;BME280;3299;42.004;24.868;2023-05-21T04:13:59;97851.09;;;14.38;100.00
6532;BME280;3299;42.004;24.868;2023-05-21T04:16:25;97841.09;;;14.34;100.00
6532;BME280;3299;42.004;24.868;2023-05-21T04:18:51;97868.59;;;14.46;100.00
6532;BME280;3299;42.004;24.868;2023-05-21T04:21:16;97821.41;;;14.22;100.00
6532;BME280;3299;42.004;24.868;2023-05-21T04:23:41;97895.94;;;14.59;100.00
6532;BME280;3299;42.004;24.868;2023-05-21T04:26:07;97892.97;;;14.54;100.00
6532;BME280;3299;42.004;24.868;2023-05-21T04:28:32;97874.75;;;14.45;100.00
6532;BME280;3299;42.004;24.868;2023-05-21T04:30:59;97820.19;;;14.07;100.00
6532;BME280;3299;42.004;24.868;2023-05-21T04:33:25;97868.19;;;14.41;100.00
6532;BME280;3299;42.004;24.868;2023-05-21T04:35:51;97823.88;;;14.14;100.00
6532;BME280;3299;42.004;24.868;2023-05-21T04:38:17;97869.69;;;14.43;100.00
6532;BME280;3299;42.004;24.868;2023-05-21T04:40:49;97823.88;;;14.14;100.00
6532;BME280;3299;42.004;24.868;2023-05-21T04:43:15;97822.91;;;14.15;100.00
6532;BME280;3299;42.004;24.868;2023-05-21T04:45:41;97898.81;;;14.66;100.00
6532;BME280;3299;42.004;24.868;2023-05-21T04:48:07;97875.88;;;14.42;100.00
6532;BME280;3299;42.004;24.868;2023-05-21T04:50:32;97863.56;;;14.35;100.00
6532;BME280;3299;42.004;24.868;2023-05-21T04:52:58;97868.06;;;14.33;100.00
6532;BME280;3299;42.004;24.868;2023-05-21T04:55:23;97898.31;;;14.53;100.00
6532;BME280;3299;42.004;24.868;2023-05-21T04:57:49;97859.88;;;14.28;100.00
6532;BME280;3299;42.004;24.868;2023-05-21T05:00:15;97836.47;;;14.09;100.00
6532;BME280;3299;42.004;24.868;2023-05-21T05:02:41;97897.22;;;14.46;100.00
6532;BME280;3299;42.004;24.868;2023-05-21T05:05:07;97829.91;;;14.14;100.00
6532;BME280;3299;42.004;24.868;2023-05-21T05:07:33;97877.91;;;14.39;100.00
6532;BME280;3299;42.004;24.868;2023-05-21T05:09:58;97898.00;;;14.56;100.00
6532;BME280;3299;42.004;24.868;2023-05-21T05:12:23;97910.47;;;14.62;100.00
6532;BME280;3299;42.004;24.868;2023-05-21T05:14:49;97914.47;;;14.56;100.00
6532;BME280;3299;42.004;24.868;2023-05-21T05:17:14;97897.59;;;14.51;100.00
6532;BME280;3299;42.004;24.868;2023-05-21T05:19:40;97904.88;;;14.57;100.00
6532;BME280;3299;42.004;24.868;2023-05-21T05:22:06;97912.50;;;14.68;100.00
6532;BME280;3299;42.004;24.868;2023-05-21T05:24:31;97903.59;;;14.61;100.00
6532;BME280;3299;42.004;24.868;2023-05-21T05:26:56;97881.88;;;14.43;100.00
6532;BME280;3299;42.004;24.868;2023-05-21T05:29:22;97885.16;;;14.45;100.00
6532;BME280;3299;42.004;24.868;2023-05-21T05:31:47;97881.63;;;14.46;100.00
6532;BME280;3299;42.004;24.868;2023-05-21T05:34:13;97884.78;;;14.40;100.00
6532;BME280;3299;42.004;24.868;2023-05-21T05:36:38;97875.31;;;14.39;100.00
6532;BME280;3299;42.004;24.868;2023-05-21T05:39:04;97928.25;;;14.76;100.00
6532;BME280;3299;42.004;24.868;2023-05-21T05:41:29;97921.31;;;14.57;100.00
6532;BME280;3299;42.004;24.868;2023-05-21T05:43:55;97941.69;;;14.62;100.00
6532;BME280;3299;42.004;24.868;2023-05-21T05:46:20;97885.34;;;14.34;100.00
6532;BME280;3299;42.004;24.868;2023-05-21T05:48:45;97869.06;;;14.13;100.00
6532;BME280;3299;42.004;24.868;2023-05-21T05:51:11;97941.59;;;14.54;100.00
6532;BME280;3299;42.004;24.868;2023-05-21T05:53:37;97881.63;;;14.17;100.00
6532;BME280;3299;42.004;24.868;2023-05-21T05:56:02;97949.53;;;14.52;100.00
6532;BME280;3299;42.004;24.868;2023-05-21T05:58:31;97951.34;;;14.52;100.00
6532;BME280;3299;42.004;24.868;2023-05-21T06:00:56;97952.97;;;14.53;100.00
6532;BME280;3299;42.004;24.868;2023-05-21T06:03:22;97957.47;;;14.51;100.00
6532;BME280;3299;42.004;24.868;2023-05-21T06:05:47;97905.19;;;14.16;100.00
6532;BME280;3299;42.004;24.868;2023-05-21T06:08:13;97915.34;;;14.09;100.00
6532;BME280;3299;42.004;24.868;2023-05-21T06:10:38;97877.31;;;13.70;100.00
6532;BME280;3299;42.004;24.868;2023-05-21T06:13:03;97910.97;;;13.91;100.00
6532;BME280;3299;42.004;24.868;2023-05-21T06:15:29;97957.50;;;14.13;100.00
6532;BME280;3299;42.004;24.868;2023-05-21T06:17:54;97887.59;;;13.72;100.00
6532;BME280;3299;42.004;24.868;2023-05-21T06:20:20;97954.78;;;14.05;100.00
6532;BME280;3299;42.004;24.868;2023-05-21T06:22:45;97928.75;;;13.86;100.00
6532;BME280;3299;42.004;24.868;2023-05-21T06:25:10;97884.16;;;13.62;100.00
6532;BME280;3299;42.004;24.868;2023-05-21T06:27:36;97877.44;;;13.59;100.00
6532;BME280;3299;42.004;24.868;2023-05-21T06:30:02;97917.25;;;13.88;100.00
6532;BME280;3299;42.004;24.868;2023-05-21T06:32:28;97970.00;;;14.19;100.00
6532;BME280;3299;42.004;24.868;2023-05-21T06:34:54;97900.72;;;13.70;100.00
6532;BME280;3299;42.004;24.868;2023-05-21T06:37:20;97946.56;;;14.09;100.00
6532;BME280;3299;42.004;24.868;2023-05-21T06:39:48;97903.84;;;13.83;100.00
6532;BME280;3299;42.004;24.868;2023-05-21T06:42:14;97944.94;;;14.08;100.00
6532;BME280;3299;42.004;24.868;2023-05-21T06:44:39;97871.03;;;13.54;100.00
6532;BME280;3299;42.004;24.868;2023-05-21T06:47:05;97926.31;;;13.84;100.00
6532;BME280;3299;42.004;24.868;2023-05-21T06:49:31;97916.72;;;13.85;100.00
6532;BME280;3299;42.004;24.868;2023-05-21T06:51:56;97954.25;;;14.11;100.00
6532;BME280;3299;42.004;24.868;2023-05-21T06:54:22;97946.56;;;14.09;100.00
6532;BME280;3299;42.004;24.868;2023-05-21T06:56:47;97855.13;;;13.66;100.00
6532;BME280;3299;42.004;24.868;2023-05-21T06:59:13;97951.50;;;14.22;100.00
6532;BME280;3299;42.004;24.868;2023-05-21T07:01:38;97912.06;;;14.07;100.00
6532;BME280;3299;42.004;24.868;2023-05-21T07:04:07;97950.56;;;14.32;100.00
6532;BME280;3299;42.004;24.868;2023-05-21T07:06:32;97881.28;;;13.84;100.00
6532;BME280;3299;42.004;24.868;2023-05-21T07:08:58;97933.97;;;14.14;100.00
6532;BME280;3299;42.004;24.868;2023-05-21T07:11:24;97940.69;;;14.17;100.00
6532;BME280;3299;42.004;24.868;2023-05-21T07:13:53;97947.53;;;14.27;100.00
6532;BME280;3299;42.004;24.868;2023-05-21T07:16:18;97946.16;;;14.33;100.00
6532;BME280;3299;42.004;24.868;2023-05-21T07:18:44;97961.63;;;14.44;100.00
6532;BME280;3299;42.004;24.868;2023-05-21T07:21:09;97891.66;;;14.03;100.00
6532;BME280;3299;42.004;24.868;2023-05-21T07:23:35;97950.53;;;14.42;100.00
6532;BME280;3299;42.004;24.868;2023-05-21T07:26:00;97942.19;;;14.29;100.00
6532;BME280;3299;42.004;24.868;2023-05-21T07:28:26;97870.06;;;13.93;100.00
6532;BME280;3299;42.004;24.868;2023-05-21T07:30:51;97877.44;;;13.97;100.00
6532;BME280;3299;42.004;24.868;2023-05-21T07:33:16;97938.22;;;14.25;100.00
6532;BME280;3299;42.004;24.868;2023-05-21T07:35:44;97948.19;;;14.39;100.00
6532;BME280;3299;42.004;24.868;2023-05-21T07:38:10;97946.28;;;14.41;100.00
6532;BME280;3299;42.004;24.868;2023-05-21T07:40:35;97963.22;;;14.64;100.00
6532;BME280;3299;42.004;24.868;2023-05-21T07:43:00;97881.94;;;14.05;100.00
6532;BME280;3299;42.004;24.868;2023-05-21T07:45:26;97967.63;;;14.54;100.00
6532;BME280;3299;42.004;24.868;2023-05-21T07:47:51;97931.09;;;14.27;100.00
6532;BME280;3299;42.004;24.868;2023-05-21T07:50:17;97983.75;;;14.67;100.00
6532;BME280;3299;42.004;24.868;2023-05-21T07:52:42;97987.91;;;14.60;100.00
6532;BME280;3299;42.004;24.868;2023-05-21T07:55:08;97988.47;;;14.54;100.00
6532;BME280;3299;42.004;24.868;2023-05-21T07:57:34;97920.28;;;14.22;100.00
6532;BME280;3299;42.004;24.868;2023-05-21T07:59:59;97978.84;;;14.64;100.00
6532;BME280;3299;42.004;24.868;2023-05-21T08:02:25;97990.38;;;14.61;100.00
6532;BME280;3299;42.004;24.868;2023-05-21T08:04:51;97951.50;;;14.41;100.00
6532;BME280;3299;42.004;24.868;2023-05-21T08:07:16;97988.72;;;14.51;100.00
6532;BME280;3299;42.004;24.868;2023-05-21T08:09:44;97947.50;;;14.37;100.00
6532;BME280;3299;42.004;24.868;2023-05-21T08:12:09;97910.16;;;14.19;100.00
6532;BME280;3299;42.004;24.868;2023-05-21T08:14:38;97946.53;;;14.47;100.00
6532;BME280;3299;42.004;24.868;2023-05-21T08:17:03;97998.25;;;14.79;100.00
6532;BME280;3299;42.004;24.868;2023-05-21T08:19:29;97909.03;;;14.31;100.00
6532;BME280;3299;42.004;24.868;2023-05-21T08:21:55;97986.22;;;14.78;100.00
6532;BME280;3299;42.004;24.868;2023-05-21T08:24:20;97959.00;;;14.63;100.00
6532;BME280;3299;42.004;24.868;2023-05-21T08:26:46;97976.84;;;14.85;100.00
6532;BME280;3299;42.004;24.868;2023-05-21T08:29:13;97913.94;;;14.53;100.00
6532;BME280;3299;42.004;24.868;2023-05-21T08:31:39;97966.44;;;14.85;100.00
6532;BME280;3299;42.004;24.868;2023-05-21T08:34:04;97974.78;;;14.98;100.00
6532;BME280;3299;42.004;24.868;2023-05-21T08:36:30;97992.44;;;15.04;100.00
6532;BME280;3299;42.004;24.868;2023-05-21T08:38:55;98000.09;;;15.05;100.00
6532;BME280;3299;42.004;24.868;2023-05-21T08:41:22;97999.13;;;15.16;100.00
6532;BME280;3299;42.004;24.868;2023-05-21T08:43:53;97920.59;;;14.65;100.00
6532;BME280;3299;42.004;24.868;2023-05-21T08:46:22;97913.34;;;14.59;100.00
6532;BME280;3299;42.004;24.868;2023-05-21T08:48:50;97969.94;;;15.03;100.00
6532;BME280;3299;42.004;24.868;2023-05-21T08:51:16;97937.94;;;14.83;100.00
6532;BME280;3299;42.004;24.868;2023-05-21T08:53:42;97919.06;;;14.72;100.00
6532;BME280;3299;42.004;24.868;2023-05-21T08:56:10;97973.50;;;15.02;100.00
6532;BME280;3299;42.004;24.868;2023-05-21T08:58:39;97959.16;;;14.98;100.00
6532;BME280;3299;42.004;24.868;2023-05-21T09:01:06;97895.69;;;14.53;100.00
6532;BME280;3299;42.004;24.868;2023-05-21T09:03:33;97975.72;;;15.06;100.00
6532;BME280;3299;42.004;24.868;2023-05-21T09:06:03;97979.78;;;15.18;100.00
6532;BME280;3299;42.004;24.868;2023-05-21T09:08:34;97962.25;;;15.11;100.00
6532;BME280;3299;42.004;24.868;2023-05-21T09:11:02;97961.53;;;15.09;100.00
6532;BME280;3299;42.004;24.868;2023-05-21T09:13:28;97974.50;;;15.28;100.00
6532;BME280;3299;42.004;24.868;2023-05-21T09:15:55;97940.56;;;15.10;100.00
6532;BME280;3299;42.004;24.868;2023-05-21T09:18:21;97927.84;;;15.07;100.00
6532;BME280;3299;42.004;24.868;2023-05-21T09:20:46;97887.34;;;14.86;100.00
6532;BME280;3299;42.004;24.868;2023-05-21T09:23:16;97982.03;;;15.31;100.00
6532;BME280;3299;42.004;24.868;2023-05-21T09:25:46;97956.72;;;15.14;100.00
6532;BME280;3299;42.004;24.868;2023-05-21T09:28:13;97926.34;;;15.05;100.00
6532;BME280;3299;42.004;24.868;2023-05-21T09:30:46;97901.31;;;14.85;100.00
6532;BME280;3299;42.004;24.868;2023-05-21T09:33:11;97984.63;;;15.40;100.00
6532;BME280;3299;42.004;24.868;2023-05-21T09:35:43;97899.22;;;14.98;100.00
6532;BME280;3299;42.004;24.868;2023-05-21T09:38:09;97972.84;;;15.36;100.00
6532;BME280;3299;42.004;24.868;2023-05-21T09:40:34;97918.63;;;15.13;100.00
6532;BME280;3299;42.004;24.868;2023-05-21T09:43:00;97928.72;;;15.25;100.00
6532;BME280;3299;42.004;24.868;2023-05-21T09:45:27;97977.81;;;15.57;100.00
6532;BME280;3299;42.004;24.868;2023-05-21T09:47:54;97964.91;;;15.55;100.00
6532;BME280;3299;42.004;24.868;2023-05-21T09:50:24;97936.31;;;15.46;100.00
6532;BME280;3299;42.004;24.868;2023-05-21T09:52:52;97918.50;;;15.41;100.00
6532;BME280;3299;42.004;24.868;2023-05-21T09:55:21;97960.53;;;15.73;100.00
6532;BME280;3299;42.004;24.868;2023-05-21T09:57:48;97925.56;;;15.49;100.00
6532;BME280;3299;42.004;24.868;2023-05-21T10:00:20;97985.44;;;15.85;100.00
6532;BME280;3299;42.004;24.868;2023-05-21T10:02:53;97926.47;;;15.57;100.00
6532;BME280;3299;42.004;24.868;2023-05-21T10:05:19;97946.53;;;15.74;100.00
6532;BME280;3299;42.004;24.868;2023-05-21T10:07:49;97915.38;;;15.55;100.00
6532;BME280;3299;42.004;24.868;2023-05-21T10:10:18;97934.59;;;15.54;100.00
6532;BME280;3299;42.004;24.868;2023-05-21T10:12:46;97928.88;;;15.51;100.00
6532;BME280;3299;42.004;24.868;2023-05-21T10:15:18;98011.84;;;16.00;100.00
6532;BME280;3299;42.004;24.868;2023-05-21T10:17:45;97961.97;;;15.68;100.00
6532;BME280;3299;42.004;24.868;2023-05-21T10:20:12;98011.19;;;15.98;100.00
6532;BME280;3299;42.004;24.868;2023-05-21T10:22:38;97974.31;;;15.66;100.00
6532;BME280;3299;42.004;24.868;2023-05-21T10:25:08;97985.34;;;15.60;100.00
6532;BME280;3299;42.004;24.868;2023-05-21T10:27:35;98018.06;;;15.72;100.00
6532;BME280;3299;42.004;24.868;2023-05-21T10:30:01;97972.41;;;15.41;100.00
6532;BME280;3299;42.004;24.868;2023-05-21T10:32:26;97999.34;;;15.59;100.00
6532;BME280;3299;42.004;24.868;2023-05-21T10:34:53;97980.81;;;15.35;100.00
6532;BME280;3299;42.004;24.868;2023-05-21T10:37:19;98007.94;;;15.42;100.00
6532;BME280;3299;42.004;24.868;2023-05-21T10:39:47;97914.88;;;14.88;100.00
6532;BME280;3299;42.004;24.868;2023-05-21T10:42:39;97971.78;;;15.20;100.00
6532;BME280;3299;42.004;24.868;2023-05-21T10:45:25;97996.41;;;15.44;100.00
6532;BME280;3299;42.004;24.868;2023-05-21T10:58:53;97976.59;;;15.51;100.00
6532;BME280;3299;42.004;24.868;2023-05-21T11:01:27;97972.44;;;15.58;100.00
6532;BME280;3299;42.004;24.868;2023-05-21T11:03:54;97968.88;;;15.59;100.00
6532;BME280;3299;42.004;24.868;2023-05-21T11:06:24;97945.09;;;15.45;100.00
6532;BME280;3299;42.004;24.868;2023-05-21T11:08:50;97919.88;;;15.36;100.00
6532;BME280;3299;42.004;24.868;2023-05-21T11:11:40;97981.88;;;15.69;100.00
6532;BME280;3299;42.004;24.868;2023-05-21T11:14:35;97978.34;;;15.78;100.00
6532;BME280;3299;42.004;24.868;2023-05-21T11:19:44;97975.16;;;15.84;100.00
6532;BME280;3299;42.004;24.868;2023-05-21T11:22:25;97936.81;;;15.67;100.00
6532;BME280;3299;42.004;24.868;2023-05-21T11:24:52;97894.13;;;15.33;100.00
6532;BME280;3299;42.004;24.868;2023-05-21T11:27:47;97967.91;;;15.78;100.00
6532;BME280;3299;42.004;24.868;2023-05-21T11:30:17;97920.34;;;15.49;100.00
6532;BME280;3299;42.004;24.868;2023-05-21T11:38:16;97952.34;;;16.03;100.00
6532;BME280;3299;42.004;24.868;2023-05-21T11:40:51;97972.53;;;16.19;100.00
6532;BME280;3299;42.004;24.868;2023-05-21T11:43:20;97968.38;;;16.26;100.00
6532;BME280;3299;42.004;24.868;2023-05-21T11:45:46;97946.66;;;16.25;100.00
6532;BME280;3299;42.004;24.868;2023-05-21T11:48:14;97904.69;;;16.19;100.00
6532;BME280;3299;42.004;24.868;2023-05-21T11:50:40;97918.50;;;16.37;100.00
6532;BME280;3299;42.004;24.868;2023-05-21T11:53:09;97963.41;;;16.58;100.00
6532;BME280;3299;42.004;24.868;2023-05-21T11:55:42;97962.44;;;16.59;100.00
6532;BME280;3299;42.004;24.868;2023-05-21T11:58:12;97898.78;;;16.34;100.00
6532;BME280;3299;42.004;24.868;2023-05-21T12:00:39;97916.72;;;16.55;100.00
6532;BME280;3299;42.004;24.868;2023-05-21T12:03:04;97918.63;;;16.70;100.00
6532;BME280;3299;42.004;24.868;2023-05-21T12:05:45;97925.19;;;17.08;100.00
6532;BME280;3299;42.004;24.868;2023-05-21T12:08:11;97929.91;;;17.46;100.00
6532;BME280;3299;42.004;24.868;2023-05-21T12:10:36;97916.41;;;17.74;100.00
6532;BME280;3299;42.004;24.868;2023-05-21T12:13:03;97936.72;;;18.20;100.00
6532;BME280;3299;42.004;24.868;2023-05-21T12:15:29;97938.69;;;18.18;100.00
6532;BME280;3299;42.004;24.868;2023-05-21T12:17:55;97882.41;;;17.98;100.00
6532;BME280;3299;42.004;24.868;2023-05-21T12:20:20;97899.56;;;17.85;100.00
6532;BME280;3299;42.004;24.868;2023-05-21T12:22:47;97854.06;;;17.54;100.00
6532;BME280;3299;42.004;24.868;2023-05-21T12:25:13;97912.00;;;17.91;100.00
6532;BME280;3299;42.004;24.868;2023-05-21T12:27:39;97909.03;;;17.94;100.00
6532;BME280;3299;42.004;24.868;2023-05-21T12:30:26;97929.03;;;17.95;100.00
6532;BME280;3299;42.004;24.868;2023-05-21T12:32:52;97940.16;;;17.89;100.00
6532;BME280;3299;42.004;24.868;2023-05-21T12:35:23;97896.59;;;17.64;100.00
6532;BME280;3299;42.004;24.868;2023-05-21T12:37:49;97926.69;;;17.76;100.00
6532;BME280;3299;42.004;24.868;2023-05-21T12:40:17;97923.94;;;17.77;100.00
6532;BME280;3299;42.004;24.868;2023-05-21T12:42:43;97899.00;;;17.49;100.00
6532;BME280;3299;42.004;24.868;2023-05-21T12:45:09;97866.41;;;17.36;100.00
6532;BME280;3299;42.004;24.868;2023-05-21T12:47:35;97900.84;;;17.57;100.00
6532;BME280;3299;42.004;24.868;2023-05-21T12:50:07;97890.38;;;17.49;100.00
6532;BME280;3299;42.004;24.868;2023-05-21T12:52:33;97883.66;;;17.54;100.00
6532;BME280;3299;42.004;24.868;2023-05-21T12:54:59;97902.84;;;17.79;100.00
6532;BME280;3299;42.004;24.868;2023-05-21T12:57:26;97921.81;;;17.97;100.00
6532;BME280;3299;42.004;24.868;2023-05-21T12:59:55;97912.66;;;18.01;100.00
6532;BME280;3299;42.004;24.868;2023-05-21T13:02:23;97911.69;;;18.18;100.00
6532;BME280;3299;42.004;24.868;2023-05-21T13:05:00;97868.47;;;17.98;100.00
6532;BME280;3299;42.004;24.868;2023-05-21T13:07:28;97903.19;;;18.32;100.00
6532;BME280;3299;42.004;24.868;2023-05-21T13:09:54;97868.81;;;18.19;100.00
6532;BME280;3299;42.004;24.868;2023-05-21T13:12:24;97858.00;;;18.30;100.00
6532;BME280;3299;42.004;24.868;2023-05-21T13:14:52;97911.13;;;18.78;100.00
6532;BME280;3299;42.004;24.868;2023-05-21T13:17:18;97910.59;;;18.91;100.00
6532;BME280;3299;42.004;24.868;2023-05-21T13:20:04;97906.78;;;19.01;100.00
6532;BME280;3299;42.004;24.868;2023-05-21T13:22:36;97869.16;;;18.86;100.00